James Valley, South Dakota
Current Conditions -  °F | °C
As of 11:55 AM on Tuesday 21 Oct 2014 (Local Time) from KHON Reporting Station
Clear Clear  
Wind Chill: 67°   Ceiling: Unl
Heat Index: 67°   Visibility: 10mi
Dew Point: 41°   Wind: 16mph
Humidity: 39%   Direction: 170°S
Pressure: 29.95"   Gusts: 23mph
Location:  44.3587°N, 98.2248°W
Report Text: KHON 211655Z AUTO 17014G20KT 10SM CLR 19/05 A2995 RMK AO2 SLP141 T01940050
Loading
Personal Weather Stations






























Interactive Weather Map
Tropical Storm Tracking
New forecast layout! Learn more

10-Day Weather Forecast

Advertisements
Track Severe Weather on mobile